Time;durP1;ratioP1;P1;durP2;ratioP2;P2;SDS_P1;SDS_P2;PMS_P1;PMS_P2;Temp;Humidity;BMP_temperature;BMP_pressure;BME280_temperature;BME280_humidity;BME280_pressure;Samples;Min_cycle;Max_cycle;Signal;HPM_P1;HPM_P2
2021/05/05 00:01:54;;;;;;;11.88;6.20;;;;;;;8.52;50.27;98662.13;1850662;77;21114;-56
2021/05/05 00:04:22;;;;;;;11.85;5.85;;;;;;;8.50;50.45;98654.80;1850634;77;21146;-57
2021/05/05 00:06:53;;;;;;;11.50;6.40;;;;;;;8.47;50.58;98653.95;1850813;77;21138;-57
2021/05/05 00:09:21;;;;;;;14.28;6.10;;;;;;;8.46;50.61;98654.77;1851038;77;21295;-59
2021/05/05 00:11:49;;;;;;;12.37;6.33;;;;;;;8.45;50.89;98653.05;1850916;77;21130;-58
2021/05/05 00:14:20;;;;;;;14.13;6.40;;;;;;;8.47;50.88;98655.62;1850966;77;21271;-56
2021/05/05 00:16:48;;;;;;;12.50;6.30;;;;;;;8.45;50.74;98655.62;1850658;77;21126;-62
2021/05/05 00:19:16;;;;;;;10.30;5.85;;;;;;;8.44;50.81;98642.73;1850600;77;21138;-59
2021/05/05 00:21:45;;;;;;;11.00;6.60;;;;;;;8.43;50.97;98661.59;1850779;77;21272;-60
2021/05/05 00:24:14;;;;;;;10.43;6.22;;;;;;;8.42;50.89;98650.44;1850604;77;21280;-60
2021/05/05 00:26:43;;;;;;;9.78;5.72;;;;;;;8.44;51.04;98647.45;1850560;77;21281;-60
2021/05/05 00:29:12;;;;;;;11.18;6.40;;;;;;;8.44;51.15;98652.59;1850591;77;21137;-60
2021/05/05 00:31:40;;;;;;;10.70;5.65;;;;;;;8.45;51.23;98653.48;1850602;77;21125;-59
2021/05/05 00:34:08;;;;;;;9.15;5.53;;;;;;;8.44;51.26;98651.30;1850683;77;21130;-59
2021/05/05 00:36:36;;;;;;;10.28;5.80;;;;;;;8.44;51.26;98649.16;1850859;77;21236;-59
2021/05/05 00:39:05;;;;;;;9.83;5.58;;;;;;;8.40;51.34;98641.84;1850629;77;21316;-58
2021/05/05 00:41:33;;;;;;;11.28;5.80;;;;;;;8.37;51.48;98641.77;1850703;77;21138;-58
2021/05/05 00:44:01;;;;;;;10.05;5.53;;;;;;;8.34;51.59;98642.98;1850715;77;21267;-57
2021/05/05 00:46:28;;;;;;;13.85;6.65;;;;;;;8.31;51.68;98635.23;1850713;77;21280;-58
2021/05/05 00:48:57;;;;;;;13.15;6.00;;;;;;;8.28;51.65;98642.91;1850615;77;21161;-59
2021/05/05 00:51:25;;;;;;;10.28;6.12;;;;;;;8.26;51.87;98638.16;1850916;77;21196;-58
2021/05/05 00:53:52;;;;;;;10.48;5.28;;;;;;;8.23;51.90;98636.41;1850649;77;21162;-59
2021/05/05 00:56:20;;;;;;;10.53;5.62;;;;;;;8.22;52.00;98641.54;1850843;77;21280;-58
2021/05/05 00:58:49;;;;;;;9.23;5.58;;;;;;;8.20;52.13;98639.36;1850927;77;21138;-60
2021/05/05 01:01:17;;;;;;;10.20;5.65;;;;;;;8.16;52.25;98638.43;1850870;77;21233;-61
2021/05/05 01:03:45;;;;;;;9.50;5.50;;;;;;;8.14;52.28;98641.81;1850866;77;21136;-59
2021/05/05 01:06:15;;;;;;;12.25;5.50;;;;;;;8.10;52.35;98630.64;1850807;77;21188;-61
2021/05/05 01:08:46;;;;;;;9.48;5.53;;;;;;;8.10;52.50;98627.21;1850793;77;21272;-60
2021/05/05 01:11:15;;;;;;;9.05;5.37;;;;;;;8.08;52.59;98622.46;1850673;77;21165;-59
2021/05/05 01:13:44;;;;;;;9.85;5.00;;;;;;;8.07;52.56;98628.45;1850919;77;21652;-59
2021/05/05 01:16:15;;;;;;;10.28;5.33;;;;;;;8.07;52.59;98631.03;1850813;77;21145;-58
2021/05/05 01:18:45;;;;;;;10.13;5.58;;;;;;;8.04;52.75;98631.42;1850543;77;21292;-58
2021/05/05 01:21:13;;;;;;;8.70;5.45;;;;;;;8.03;52.75;98619.39;1850578;77;21133;-57
2021/05/05 01:23:42;;;;;;;9.83;5.05;;;;;;;8.01;52.85;98619.81;1850729;77;21512;-61
2021/05/05 01:26:11;;;;;;;10.48;5.58;;;;;;;8.00;52.87;98610.35;1850602;77;21162;-60
2021/05/05 01:28:42;;;;;;;9.85;5.30;;;;;;;7.99;52.94;98617.63;1850723;77;21142;-59
2021/05/05 01:31:15;;;;;;;9.93;5.40;;;;;;;7.96;53.10;98624.02;1850816;77;21146;-59
2021/05/05 01:33:43;;;;;;;10.43;5.47;;;;;;;7.93;53.25;98617.94;1850863;77;21548;-59
2021/05/05 01:36:15;;;;;;;10.35;6.12;;;;;;;7.91;53.40;98611.91;1850534;77;21284;-58
2021/05/05 01:38:44;;;;;;;10.63;5.97;;;;;;;7.89;53.51;98605.91;1857155;77;21280;-61
2021/05/05 01:41:13;;;;;;;11.95;6.15;;;;;;;7.87;53.66;98598.16;1850707;77;21162;-59
2021/05/05 01:43:41;;;;;;;9.63;5.55;;;;;;;7.86;53.64;98606.72;1850535;77;21161;-59
2021/05/05 01:46:09;;;;;;;11.97;5.37;;;;;;;7.87;53.86;98593.02;1850632;77;21141;-59
2021/05/05 01:48:38;;;;;;;10.25;5.60;;;;;;;7.87;53.87;98603.73;1850530;77;21161;-59
2021/05/05 01:51:06;;;;;;;10.10;5.80;;;;;;;7.86;53.96;98586.17;1850874;77;21130;-59
2021/05/05 01:53:34;;;;;;;12.18;6.50;;;;;;;7.88;53.99;98601.16;1850757;77;21170;-58
2021/05/05 01:56:02;;;;;;;12.37;6.45;;;;;;;7.89;53.97;98599.06;1850718;77;21213;-58
2021/05/05 01:58:32;;;;;;;11.18;5.28;;;;;;;7.90;54.13;98603.34;1850888;77;21252;-60
2021/05/05 02:01:01;;;;;;;11.57;5.80;;;;;;;7.90;54.10;98597.34;1850804;77;21118;-59
2021/05/05 02:03:31;;;;;;;13.22;5.75;;;;;;;7.90;54.17;98599.49;1850537;77;21126;-58
2021/05/05 02:06:00;;;;;;;9.93;5.60;;;;;;;7.90;54.31;98592.21;1848664;77;21150;-58
2021/05/05 02:08:30;;;;;;;8.85;5.80;;;;;;;7.90;54.22;98605.91;1849362;77;21273;-59
2021/05/05 02:10:58;;;;;;;17.70;5.33;;;;;;;7.91;54.28;98601.23;1850780;77;21184;-60
2021/05/05 02:13:25;;;;;;;12.60;5.67;;;;;;;7.91;54.38;98597.39;1850876;77;21284;-59
2021/05/05 02:15:53;;;;;;;12.47;5.78;;;;;;;7.91;54.31;98592.25;1850766;77;21273;-61
2021/05/05 02:18:23;;;;;;;11.40;5.65;;;;;;;7.93;54.38;98602.53;1850626;77;21126;-61
2021/05/05 02:20:52;;;;;;;8.65;5.50;;;;;;;7.94;54.37;98589.72;1850783;77;21531;-59
2021/05/05 02:23:20;;;;;;;9.95;5.90;;;;;;;7.94;54.40;98578.58;1850532;77;21118;-62
2021/05/05 02:25:49;;;;;;;9.93;5.65;;;;;;;7.93;54.44;98587.97;1850685;77;21122;-56
2021/05/05 02:28:17;;;;;;;11.45;6.62;;;;;;;7.92;54.60;98583.69;1850695;77;21268;-61
2021/05/05 02:30:49;;;;;;;12.78;6.00;;;;;;;7.89;54.66;98581.08;1847961;77;21141;-59
2021/05/05 02:33:19;;;;;;;20.10;5.97;;;;;;;7.87;54.74;98586.60;1850795;77;21378;-58
2021/05/05 02:35:49;;;;;;;9.88;5.75;;;;;;;7.87;54.97;98583.17;1850489;77;21276;-59
2021/05/05 02:38:17;;;;;;;11.08;6.17;;;;;;;7.88;55.15;98567.77;1850484;77;21133;-59
2021/05/05 02:40:48;;;;;;;10.38;6.30;;;;;;;7.86;55.15;98580.14;1850459;77;21276;-58
2021/05/05 02:43:16;;;;;;;11.03;6.20;;;;;;;7.85;55.28;98575.86;1850727;77;21134;-59
2021/05/05 02:45:44;;;;;;;11.80;6.00;;;;;;;7.83;55.44;98578.39;1850769;77;21129;-56
2021/05/05 02:48:11;;;;;;;11.28;6.53;;;;;;;7.80;55.65;98571.92;1850540;77;21154;-60
2021/05/05 02:50:40;;;;;;;10.10;5.28;;;;;;;7.80;55.78;98577.06;1850496;77;21130;-58
2021/05/05 02:53:07;;;;;;;10.40;5.75;;;;;;;7.80;55.91;98577.92;1850493;77;21216;-57
2021/05/05 02:55:35;;;;;;;9.93;6.03;;;;;;;7.83;55.99;98574.54;1850554;77;21106;-59
2021/05/05 02:58:03;;;;;;;10.30;5.87;;;;;;;7.88;56.07;98571.62;1850780;77;21201;-61
2021/05/05 03:00:30;;;;;;;10.58;6.12;;;;;;;7.90;56.23;98567.37;1850711;77;21269;-58
2021/05/05 03:02:58;;;;;;;10.72;5.30;;;;;;;7.92;56.38;98575.98;1850631;77;21117;-61
2021/05/05 03:05:26;;;;;;;9.70;5.60;;;;;;;7.94;56.56;98565.73;1850554;77;21122;-57
2021/05/05 03:07:54;;;;;;;13.53;6.67;;;;;;;7.97;56.68;98558.06;1850796;77;21129;-62
2021/05/05 03:10:23;;;;;;;11.97;6.03;;;;;;;8.00;56.76;98564.53;1850929;77;21129;-60
2021/05/05 03:12:50;;;;;;;8.53;5.67;;;;;;;8.05;56.79;98570.17;1850666;77;21285;-61
2021/05/05 03:15:20;;;;;;;11.48;6.20;;;;;;;8.10;56.83;98562.53;1850709;77;21118;-59
2021/05/05 03:17:49;;;;;;;9.60;5.12;;;;;;;8.17;56.89;98558.36;1850455;77;21545;-59
2021/05/05 03:20:19;;;;;;;11.97;6.62;;;;;;;8.20;57.01;98560.53;1850952;77;21153;-60
2021/05/05 03:22:47;;;;;;;8.43;5.42;;;;;;;8.27;57.10;98561.50;1850976;77;21255;-58
2021/05/05 03:25:15;;;;;;;11.65;5.55;;;;;;;8.35;57.03;98555.17;1851007;77;21272;-59
2021/05/05 03:27:43;;;;;;;9.85;5.90;;;;;;;8.40;57.00;98563.84;1850668;77;21276;-61
2021/05/05 03:30:12;;;;;;;8.70;5.92;;;;;;;8.44;57.04;98558.73;1850761;77;21125;-58
2021/05/05 03:32:40;;;;;;;9.28;5.67;;;;;;;8.49;57.05;98562.66;1850818;77;21288;-59
2021/05/05 03:35:10;;;;;;;8.85;5.87;;;;;;;8.54;57.09;98557.14;1850641;77;21137;-59
2021/05/05 03:37:38;;;;;;;11.40;5.70;;;;;;;8.61;57.06;98556.38;1850936;77;21370;-57
2021/05/05 03:40:08;;;;;;;10.50;5.95;;;;;;;8.67;57.01;98557.73;1850700;77;21137;-61
2021/05/05 03:42:36;;;;;;;9.20;5.87;;;;;;;8.71;57.07;98566.36;1850841;77;21315;-60
2021/05/05 03:45:07;;;;;;;8.80;5.72;;;;;;;8.78;57.01;98563.45;1850638;77;21134;-58
2021/05/05 03:47:37;;;;;;;11.03;5.80;;;;;;;8.84;57.02;98557.94;1851024;77;21177;-61
2021/05/05 03:50:08;;;;;;;7.83;4.87;;;;;;;8.94;56.95;98550.33;1855655;77;21169;-58
2021/05/05 03:52:36;;;;;;;9.53;5.17;;;;;;;9.01;56.84;98553.41;1856673;77;21110;-58
2021/05/05 03:55:07;;;;;;;8.85;4.95;;;;;;;9.06;56.87;98551.75;1856802;77;21292;-60
2021/05/05 03:57:35;;;;;;;9.75;5.62;;;;;;;9.11;56.87;98546.23;1856836;77;21158;-60
2021/05/05 04:00:06;;;;;;;9.88;5.08;;;;;;;9.18;56.81;98549.27;1856758;77;21102;-61
2021/05/05 04:02:35;;;;;;;10.40;5.20;;;;;;;9.26;56.77;98546.38;1855440;77;21699;-59
2021/05/05 04:05:05;;;;;;;9.03;6.00;;;;;;;9.35;56.71;98546.88;1856796;77;21134;-61
2021/05/05 04:07:34;;;;;;;8.35;4.92;;;;;;;9.44;56.56;98548.25;1856631;77;21142;-63
2021/05/05 04:10:08;;;;;;;10.05;5.67;;;;;;;9.53;56.29;98544.45;1856535;77;21199;-60
2021/05/05 04:12:36;;;;;;;8.95;5.10;;;;;;;9.63;56.21;98541.52;1851842;77;21106;-59
2021/05/05 04:15:22;;;;;;;6.90;4.72;;;;;;;9.74;55.86;98536.05;1844779;77;21122;-59
2021/05/05 04:18:08;;;;;;;7.97;5.30;;;;;;;9.87;55.68;98548.59;1831180;78;21271;-60
2021/05/05 04:20:57;;;;;;;10.72;4.90;;;;;;;9.99;55.39;98527.17;1822445;78;21288;-62
2021/05/05 04:23:42;;;;;;;9.48;4.72;;;;;;;10.10;54.75;98534.56;1818701;78;21646;-60
2021/05/05 04:26:17;;;;;;;10.08;4.80;;;;;;;10.24;54.67;98548.81;1846945;77;21129;-63
2021/05/05 04:28:45;;;;;;;12.82;6.50;;;;;;;10.35;54.47;98545.87;1819025;78;21291;-64
2021/05/05 04:31:13;;;;;;;23.25;8.25;;;;;;;10.49;53.80;98539.52;1823044;79;21332;-66
2021/05/05 04:33:45;;;;;;;14.47;8.33;;;;;;;10.62;53.72;98539.98;1823398;79;21273;-64
2021/05/05 04:36:14;;;;;;;15.60;8.53;;;;;;;10.77;53.36;98528.86;1823225;78;21298;-61
2021/05/05 04:38:44;;;;;;;17.20;9.13;;;;;;;10.90;53.18;98531.05;1823050;78;21290;-66
2021/05/05 04:41:12;;;;;;;13.90;6.53;;;;;;;11.03;53.00;98528.92;1823280;78;21209;-64
2021/05/05 04:43:40;;;;;;;10.43;5.70;;;;;;;11.18;52.62;98511.74;1823200;79;21147;-66
2021/05/05 04:46:08;;;;;;;7.92;5.62;;;;;;;11.29;52.42;98525.52;1834624;77;21236;-66
2021/05/05 04:48:35;;;;;;;7.67;4.90;;;;;;;11.43;52.22;98525.11;1842369;77;21288;-66
2021/05/05 04:51:06;;;;;;;12.40;5.05;;;;;;;11.59;51.54;98519.50;1833872;77;21114;-66
2021/05/05 04:53:34;;;;;;;8.50;5.55;;;;;;;11.76;51.34;98516.92;1848288;77;21141;-65
2021/05/05 04:56:02;;;;;;;9.43;4.70;;;;;;;11.92;50.79;98522.52;1850511;77;21142;-65
2021/05/05 04:58:29;;;;;;;9.58;4.62;;;;;;;12.08;50.20;98509.55;1835289;77;21188;-67
2021/05/05 05:00:57;;;;;;;8.88;4.10;;;;;;;12.24;49.89;98524.63;1834981;77;21264;-64
2021/05/05 05:03:25;;;;;;;8.50;4.45;;;;;;;12.41;49.49;98524.55;1832854;77;21261;-65
2021/05/05 05:05:53;;;;;;;5.55;3.65;;;;;;;12.56;49.50;98511.55;1826585;77;21303;-63
2021/05/05 05:08:21;;;;;;;8.80;4.37;;;;;;;12.71;48.88;98507.59;1840234;77;21134;-65
2021/05/05 05:10:51;;;;;;;10.80;4.70;;;;;;;12.80;48.72;98503.68;1850211;77;21137;-67
2021/05/05 05:13:19;;;;;;;9.45;4.40;;;;;;;12.96;48.76;98518.69;1847152;77;21280;-65
2021/05/05 05:15:47;;;;;;;9.53;4.40;;;;;;;13.14;48.30;98509.94;1834875;77;21252;-69
2021/05/05 05:18:15;;;;;;;7.70;3.98;;;;;;;13.30;48.21;98494.31;1839570;77;21113;-65
2021/05/05 05:20:44;;;;;;;8.95;3.67;;;;;;;13.51;48.00;98511.02;1831181;77;21366;-65
2021/05/05 05:23:12;;;;;;;7.00;3.50;;;;;;;14.15;46.79;98512.14;1837279;77;21091;-63
2021/05/05 05:25:40;;;;;;;8.18;3.22;;;;;;;15.24;44.35;98499.07;1832205;77;21124;-64
2021/05/05 05:28:07;;;;;;;5.60;3.42;;;;;;;16.17;42.38;98507.03;1823561;77;21583;-66
2021/05/05 05:30:35;;;;;;;5.25;3.05;;;;;;;17.17;40.64;98507.56;1813578;78;21126;-70
2021/05/05 05:33:04;;;;;;;5.87;3.20;;;;;;;18.13;39.70;98506.09;1826047;78;21284;-64
2021/05/05 05:35:32;;;;;;;12.47;3.27;;;;;;;19.32;36.66;98489.98;1834859;77;21276;-69
2021/05/05 05:38:00;;;;;;;5.42;2.98;;;;;;;20.15;35.43;98497.72;1840206;77;21146;-64
2021/05/05 05:40:28;;;;;;;6.08;2.70;;;;;;;20.90;33.86;98487.09;1850307;77;21110;-65
2021/05/05 05:42:56;;;;;;;7.12;2.50;;;;;;;19.61;35.21;98483.78;1850430;77;21130;-72
2021/05/05 05:45:24;;;;;;;5.97;2.87;;;;;;;19.61;35.21;98483.78;1850491;77;21281;-66
2021/05/05 05:47:52;;;;;;;6.45;2.47;;;;;;;19.76;35.12;98473.28;1850230;77;21403;-66
2021/05/05 05:50:21;;;;;;;4.78;2.52;;;;;;;20.31;34.95;98448.23;1827569;77;21140;-67
2021/05/05 05:52:49;;;;;;;5.42;1.98;;;;;;;20.31;34.95;98448.23;1818290;77;21158;-67
2021/05/05 05:55:19;;;;;;;4.83;2.20;;;;;;;20.79;33.86;98473.55;1818281;79;21288;-67
2021/05/05 05:57:49;;;;;;;4.62;2.50;;;;;;;21.01;33.58;98477.05;1814017;79;21146;-66
2021/05/05 06:00:19;;;;;;;6.35;2.00;;;;;;;20.66;34.31;98500.69;1808710;79;21325;-67
2021/05/05 06:02:46;;;;;;;6.97;2.00;;;;;;;20.77;34.24;98449.98;1801323;78;21869;-80
2021/05/05 06:05:14;;;;;;;5.60;1.90;;;;;;;21.00;34.13;98446.92;1819957;79;21110;-69
2021/05/05 06:07:41;;;;;;;4.33;1.85;;;;;;;21.20;33.97;98460.56;1769132;80;21207;-67
2021/05/05 06:10:14;;;;;;;7.12;2.15;;;;;;;21.65;33.40;98471.41;1783421;79;21140;-65
2021/05/05 06:12:42;;;;;;;10.18;7.08;;;;;;;21.94;33.03;98475.91;1774121;80;21295;-64
2021/05/05 06:15:11;;;;;;;23.87;19.27;;;;;;;21.65;33.33;98466.16;1799603;79;21140;-71
2021/05/05 06:17:39;;;;;;;43.33;30.08;;;;;;;21.22;34.07;98486.30;1795635;79;21161;-63
2021/05/05 06:20:09;;;;;;;22.10;16.77;;;;;;;21.33;34.13;98456.98;1813654;79;21144;-79
2021/05/05 06:22:37;;;;;;;26.82;22.10;;;;;;;21.96;33.42;98461.80;1814169;79;21150;-75
2021/05/05 06:25:07;;;;;;;13.35;9.20;;;;;;;22.61;32.56;98477.34;1814302;78;21577;-75
2021/05/05 06:27:36;;;;;;;14.83;10.32;;;;;;;22.86;32.18;98473.12;1809399;79;21195;-76
2021/05/05 06:30:08;;;;;;;11.43;8.65;;;;;;;23.26;31.82;98480.47;1818771;77;21150;-76
2021/05/05 06:32:37;;;;;;;11.12;6.72;;;;;;;23.12;31.92;98470.13;1805413;77;21565;-69
2021/05/05 06:35:07;;;;;;;6.97;4.12;;;;;;;23.54;31.58;98479.97;1766398;81;21145;-66
2021/05/05 06:37:35;;;;;;;13.75;8.85;;;;;;;23.48;31.67;98471.88;1802364;78;21156;-67
2021/05/05 06:40:06;;;;;;;45.33;37.17;;;;;;;23.54;31.77;98483.45;1819689;79;21138;-66
2021/05/05 06:42:35;;;;;;;;;;;;;;;23.90;31.78;98482.56;1816599;78;21158;-72
2021/05/05 06:45:06;;;;;;;37.38;30.68;;;;;;;24.79;30.97;98469.11;1808377;79;20406;-69
2021/05/05 06:47:35;;;;;;;32.70;26.33;;;;;;;25.60;29.80;98475.11;1820051;78;21284;-69
2021/05/05 06:50:08;;;;;;;44.65;35.88;;;;;;;26.36;28.70;98474.98;1817948;77;21118;-67
2021/05/05 06:52:36;;;;;;;52.70;43.33;;;;;;;26.44;28.69;98474.52;1809349;78;21288;-66
2021/05/05 06:55:06;;;;;;;51.08;40.48;;;;;;;27.05;28.06;98477.30;1802980;79;21713;-68
2021/05/05 06:57:33;;;;;;;429.35;348.65;;;;;;;26.76;28.44;98471.19;1802873;79;21615;-68
2021/05/05 07:00:08;;;;;;;163.55;136.05;;;;;;;26.32;29.08;98466.00;1773204;80;21582;-67
2021/05/05 07:02:36;;;;;;;7.10;2.70;;;;;;;25.70;30.09;98439.27;1798907;79;21199;-66
2021/05/05 07:05:05;;;;;;;5.25;2.08;;;;;;;25.27;31.12;98481.39;1810751;79;21144;-65
2021/05/05 07:07:33;;;;;;;5.10;1.65;;;;;;;24.90;32.06;98475.48;1799997;79;21237;-66
2021/05/05 07:10:00;;;;;;;5.85;2.22;;;;;;;24.14;33.39;98480.90;1804629;79;21124;-62
2021/05/05 07:12:28;;;;;;;4.72;2.30;;;;;;;23.40;34.75;98467.47;1809082;79;21297;-62
2021/05/05 07:14:55;;;;;;;7.28;2.67;;;;;;;22.82;35.95;98476.80;1802363;78;21425;-64
2021/05/05 07:17:24;;;;;;;10.98;2.90;;;;;;;23.27;35.40;98468.53;1801613;79;21150;-63
2021/05/05 07:19:53;;;;;;;7.78;3.33;;;;;;;24.24;34.38;98464.98;1767687;80;21144;-63
2021/05/05 07:22:21;;;;;;;4.95;2.20;;;;;;;25.24;32.79;98447.23;1801765;78;21291;-65
2021/05/05 07:24:49;;;;;;;172.78;151.47;;;;;;;25.78;31.84;98454.20;1804585;78;21126;-65
2021/05/05 07:27:19;;;;;;;37.08;31.93;;;;;;;26.44;30.14;98462.61;1772682;80;21302;-65
2021/05/05 07:29:47;;;;;;;16.82;10.95;;;;;;;26.79;30.08;98479.41;1802155;79;21304;-69
2021/05/05 07:32:15;;;;;;;20.02;17.82;;;;;;;25.66;31.65;98443.02;1795691;79;21195;-66
2021/05/05 07:34:44;;;;;;;7.92;5.95;;;;;;;25.05;32.07;98451.81;1815957;78;21161;-66
2021/05/05 07:37:15;;;;;;;23.25;15.25;;;;;;;24.95;32.82;98444.88;1798412;79;21267;-65
2021/05/05 07:47:17;;;;;;;13.58;9.05;;;;;;;25.19;32.52;98409.68;1770752;80;21335;-69
2021/05/05 07:49:48;;;;;;;11.03;5.70;;;;;;;25.04;32.52;98430.33;1839173;77;21573;-66
2021/05/05 07:52:13;;;;;;;7.67;3.60;;;;;;;24.93;32.75;98430.06;1816569;78;21303;-66
2021/05/05 07:54:40;;;;;;;5.78;3.30;;;;;;;25.05;32.77;98430.22;1840072;77;21152;-64
2021/05/05 07:57:08;;;;;;;5.15;2.98;;;;;;;24.73;33.06;98429.41;1849730;77;21157;-65
2021/05/05 07:59:35;;;;;;;5.87;3.08;;;;;;;24.50;33.46;98433.31;1830413;77;21183;-72
2021/05/05 08:02:04;;;;;;;5.20;2.52;;;;;;;24.67;33.57;98425.77;1834831;77;21147;-65
2021/05/05 08:04:33;;;;;;;3.67;1.90;;;;;;;24.93;33.26;98439.30;1836210;77;21285;-64
2021/05/05 08:07:01;;;;;;;4.37;1.98;;;;;;;25.30;32.81;98428.38;1844986;77;21152;-64
2021/05/05 08:09:29;;;;;;;6.05;2.22;;;;;;;25.28;33.04;98430.25;1829192;77;21147;-64
2021/05/05 08:11:57;;;;;;;7.70;2.40;;;;;;;25.02;33.09;98434.36;1837096;77;21162;-63
2021/05/05 08:14:26;;;;;;;5.17;2.40;;;;;;;24.59;33.75;98426.66;1850575;77;21186;-64
2021/05/05 08:16:54;;;;;;;7.75;2.37;;;;;;;24.44;33.90;98425.20;1849577;77;21262;-65
2021/05/05 08:19:23;;;;;;;150.90;134.52;;;;;;;24.09;34.62;98420.50;1837905;77;21131;-65
2021/05/05 08:21:51;;;;;;;9.28;3.83;;;;;;;23.97;34.83;98391.70;1836307;77;21148;-64
2021/05/05 08:24:19;;;;;;;7.87;3.20;;;;;;;24.01;34.76;98418.73;1843417;77;21311;-64
2021/05/05 08:26:46;;;;;;;9.65;3.27;;;;;;;24.11;34.67;98412.52;1848057;77;21269;-64
2021/05/05 08:29:15;;;;;;;6.60;2.85;;;;;;;24.21;34.68;98413.73;1833462;77;21140;-65
2021/05/05 08:31:42;;;;;;;9.10;2.60;;;;;;;24.31;34.40;98412.77;1836185;77;21166;-64
2021/05/05 08:34:10;;;;;;;6.87;2.58;;;;;;;24.53;34.00;98407.23;1845026;77;21257;-65
2021/05/05 08:36:38;;;;;;;4.70;2.83;;;;;;;24.84;33.73;98405.89;1842493;77;21106;-65
2021/05/05 08:39:08;;;;;;;5.42;2.65;;;;;;;24.74;33.79;98400.75;1843772;77;21095;-64
2021/05/05 08:41:38;;;;;;;7.35;2.50;;;;;;;24.34;33.80;98414.77;1845100;77;21099;-64
2021/05/05 08:44:12;;;;;;;5.22;2.40;;;;;;;24.32;33.98;98394.22;1840710;77;21121;-64
2021/05/05 08:46:42;;;;;;;5.78;2.40;;;;;;;24.31;33.75;98413.63;1837814;77;21132;-64
2021/05/05 08:49:11;;;;;;;4.00;2.30;;;;;;;24.10;33.86;98408.19;1835418;77;21248;-64
2021/05/05 08:51:39;;;;;;;7.17;2.50;;;;;;;23.70;33.99;98420.77;1835464;77;21940;-64
2021/05/05 08:54:08;;;;;;;5.53;2.55;;;;;;;23.00;35.33;98396.16;1835158;77;21260;-65
2021/05/05 08:56:37;;;;;;;4.58;2.77;;;;;;;22.39;36.82;98395.52;1835014;77;21307;-65
2021/05/05 08:59:15;;;;;;;5.20;2.95;;;;;;;22.03;37.67;98411.12;1841546;77;21188;-66
2021/05/05 09:01:43;;;;;;;5.72;2.80;;;;;;;21.72;38.39;98402.42;1837101;77;21109;-65
2021/05/05 09:04:13;;;;;;;8.90;3.58;;;;;;;21.44;39.20;98413.64;1816607;79;21169;-65
2021/05/05 09:06:58;;;;;;;7.30;3.40;;;;;;;21.36;39.58;98414.39;1816183;78;21142;-68
2021/05/05 09:09:40;;;;;;;10.55;3.15;;;;;;;21.23;39.67;98407.48;1816387;79;21110;-67
2021/05/05 09:12:21;;;;;;;7.85;3.80;;;;;;;20.72;40.93;98383.75;1816152;79;21098;-66
2021/05/05 09:15:01;;;;;;;7.08;3.83;;;;;;;20.51;41.21;98405.08;1816364;77;21551;-68
2021/05/05 09:17:39;;;;;;;7.55;4.03;;;;;;;20.60;40.88;98393.41;1822915;77;21185;-66
2021/05/05 09:20:12;;;;;;;7.45;3.55;;;;;;;20.52;40.60;98394.14;1841425;77;21264;-65
2021/05/05 09:22:48;;;;;;;31.75;21.40;;;;;;;20.41;41.18;98389.31;1829411;77;21690;-64
2021/05/05 09:25:36;;;;;;;30.68;22.67;;;;;;;20.23;41.69;98385.63;1839673;77;21283;-65
2021/05/05 09:28:18;;;;;;;23.27;14.87;;;;;;;20.04;42.20;98368.87;1820184;79;21197;-65
2021/05/05 09:30:56;;;;;;;19.10;12.37;;;;;;;19.60;43.24;98369.53;1824736;77;21352;-66
2021/05/05 09:33:31;;;;;;;13.72;7.72;;;;;;;19.39;44.06;98375.52;1842924;77;21102;-67
2021/05/05 09:36:02;;;;;;;18.92;12.25;;;;;;;19.27;43.55;98372.40;1839908;77;21130;-66
2021/05/05 09:38:45;;;;;;;11.63;7.92;;;;;;;18.84;45.40;98350.28;1837693;77;21239;-67
2021/05/05 09:41:26;;;;;;;10.18;7.28;;;;;;;18.82;46.21;98357.31;1836989;77;21114;-64
2021/05/05 09:44:05;;;;;;;9.70;6.58;;;;;;;18.97;45.48;98368.19;1835343;77;21296;-66
2021/05/05 09:46:50;;;;;;;11.03;5.53;;;;;;;19.05;45.12;98371.40;1819521;77;21098;-66
2021/05/05 09:49:33;;;;;;;8.90;6.35;;;;;;;19.03;44.53;98364.93;1846271;77;21102;-64
2021/05/05 09:52:15;;;;;;;14.70;7.30;;;;;;;19.11;43.92;98352.91;1824146;77;21116;-64
2021/05/05 09:55:00;;;;;;;;;;;;;;;19.15;44.03;98360.19;1813087;79;21291;-66
2021/05/05 09:57:33;;;;;;;10.53;5.28;;;;;;;18.94;44.06;98363.06;1811185;79;20198;-66
2021/05/05 10:00:05;;;;;;;7.60;4.37;;;;;;;18.95;44.68;98341.23;1831807;78;21138;-66
2021/05/05 10:02:49;;;;;;;8.83;4.92;;;;;;;19.09;44.66;98342.48;1810406;79;21107;-65
2021/05/05 10:05:21;;;;;;;10.50;4.17;;;;;;;19.28;43.82;98345.78;1812072;79;21107;-66
2021/05/05 10:08:03;;;;;;;6.53;3.77;;;;;;;19.37;43.13;98349.40;1812450;79;21671;-65
2021/05/05 10:10:35;;;;;;;7.70;3.60;;;;;;;19.43;42.98;98341.78;1812718;79;21284;-65
2021/05/05 10:13:05;;;;;;;5.08;3.05;;;;;;;19.46;42.93;98333.81;1812403;79;21169;-66
2021/05/05 10:15:37;;;;;;;;;;;;;;;19.51;43.13;98334.08;1832740;77;21126;-70
2021/05/05 10:18:11;;;;;;;7.62;2.85;;;;;;;19.65;42.71;98339.27;1812374;79;20323;-70
2021/05/05 10:20:51;;;;;;;5.75;2.92;;;;;;;19.74;42.08;98329.79;1824324;77;21082;-70
2021/05/05 10:23:18;;;;;;;7.97;3.08;;;;;;;19.51;42.77;98321.42;1807606;79;21150;-71
2021/05/05 10:25:51;;;;;;;7.40;3.45;;;;;;;19.61;43.00;98336.35;1842531;78;21165;-70
2021/05/05 10:28:18;;;;;;;5.40;2.80;;;;;;;19.79;41.84;98343.56;1828481;78;21351;-70
2021/05/05 10:30:46;;;;;;;5.80;2.90;;;;;;;19.95;42.54;98324.24;1842461;78;21315;-70
2021/05/05 10:33:21;;;;;;;4.58;2.25;;;;;;;20.16;41.63;98322.11;1828700;78;21694;-70
2021/05/05 10:35:51;;;;;;;4.60;2.40;;;;;;;20.16;41.63;98322.11;1842464;77;21147;-71
2021/05/05 10:38:35;;;;;;;8.48;3.83;;;;;;;20.25;40.43;98334.02;1828465;78;21158;-69
2021/05/05 10:41:12;;;;;;;25.75;16.77;;;;;;;20.25;40.55;98326.16;1843507;77;21232;-71
2021/05/05 10:48:17;;;;;;;29.12;17.65;;;;;;;20.25;39.83;98328.78;1836134;75;21167;-71
2021/05/05 10:50:58;;;;;;;22.20;14.45;;;;;;;20.35;38.60;98321.39;1775129;79;21150;-70
2021/05/05 10:53:41;;;;;;;11.63;6.40;;;;;;;20.35;38.73;98318.77;1788535;80;21178;-69
2021/05/05 10:56:27;;;;;;;14.63;8.43;;;;;;;20.32;37.86;98320.20;1771085;80;21225;-72
2021/05/05 10:59:03;;;;;;;14.28;8.63;;;;;;;20.30;38.84;98312.86;1778801;80;21282;-72
2021/05/05 11:01:40;;;;;;;9.30;6.28;;;;;;;20.30;38.84;98312.86;1777633;80;21140;-70
2021/05/05 11:04:13;;;;;;;8.60;4.90;;;;;;;20.33;38.16;98317.53;1778759;79;21149;-69
2021/05/05 11:06:47;;;;;;;9.28;4.70;;;;;;;20.37;37.73;98327.43;1751295;80;21191;-70
2021/05/05 11:09:22;;;;;;;7.85;3.70;;;;;;;20.33;38.00;98309.67;1770923;81;21298;-70
2021/05/05 11:11:54;;;;;;;6.22;2.72;;;;;;;20.30;37.92;98310.23;1742412;82;21285;-71
2021/05/05 11:14:33;;;;;;;6.12;2.80;;;;;;;20.28;38.07;98305.07;1766018;80;21185;-70
2021/05/05 11:17:08;;;;;;;4.35;2.55;;;;;;;20.33;38.30;98315.38;1773476;78;21173;-71
2021/05/05 11:19:42;;;;;;;21.17;14.63;;;;;;;20.41;37.90;98305.91;1780507;78;21167;-71
2021/05/05 11:22:32;;;;;;;32.67;23.27;;;;;;;20.46;37.06;98299.56;1741425;81;21308;-70
2021/05/05 11:26:03;;;;;;;27.55;20.70;;;;;;;20.49;36.98;98305.98;1748918;79;21181;-69
2021/05/05 11:28:59;;;;;;;;;;;;;;;20.51;36.58;98304.16;1759633;79;21225;-71
2021/05/05 11:31:53;;;;;;;13.08;9.05;;;;;;;20.53;36.15;98303.66;1777103;80;20404;-71
2021/05/05 11:34:29;;;;;;;9.95;5.70;;;;;;;20.50;35.50;98310.30;1748445;82;21174;-71
2021/05/05 11:37:04;;;;;;;23.52;15.18;;;;;;;20.53;33.70;98306.70;1776529;80;21107;-69
2021/05/05 11:39:46;;;;;;;22.07;14.33;;;;;;;20.54;34.07;98294.02;1782029;79;21149;-71
2021/05/05 11:46:51;;;;;;;14.18;8.98;;;;;;;20.60;33.33;98305.12;1784611;78;21117;-70
2021/05/05 11:49:30;;;;;;;10.30;5.83;;;;;;;20.59;32.74;98300.80;1779200;78;21124;-72
2021/05/05 12:11:49;;;;;;;10.28;3.17;;;;;;;21.09;31.72;98284.34;1797453;79;21198;-62
2021/05/05 12:14:30;;;;;;;3.52;1.82;;;;;;;21.09;31.72;98284.34;1756835;80;21780;-62
2021/05/05 12:17:27;;;;;;;4.13;2.13;;;;;;;20.94;31.28;98276.22;1765695;81;21178;-63
2021/05/05 12:20:09;;;;;;;6.65;3.02;;;;;;;20.87;31.96;98260.34;1713651;84;21825;-63
2021/05/05 12:22:56;;;;;;;24.00;15.55;;;;;;;20.98;32.29;98276.46;1713818;84;21745;-64
2021/05/05 12:25:32;;;;;;;25.77;15.30;;;;;;;20.95;32.49;98270.50;1725894;82;21647;-64
2021/05/05 12:28:15;;;;;;;22.00;15.48;;;;;;;20.99;32.44;98270.31;1744599;82;21608;-63